sensor_id;sensor_type;location;lat;lon;timestamp;pressure;altitude;pressure_sealevel;temperature;humidity
62508;BME280;48556;51.972;4.624;2023-04-24T00:00:05;75773.88;;;-146.23;72.12
62508;BME280;48556;51.972;4.624;2023-04-24T00:02:32;75761.84;;;-146.23;71.17
62508;BME280;48556;51.972;4.624;2023-04-24T00:04:58;75798.00;;;-146.23;71.64
62508;BME280;48556;51.972;4.624;2023-04-24T00:07:30;75777.91;;;-146.23;71.33
62508;BME280;48556;51.972;4.624;2023-04-24T00:10:03;75771.88;;;-146.23;71.04
62508;BME280;48556;51.972;4.624;2023-04-24T00:13:00;75725.69;;;-146.23;70.33
62508;BME280;48556;51.972;4.624;2023-04-24T00:15:36;75693.56;;;-146.23;69.05
62508;BME280;48556;51.972;4.624;2023-04-24T00:18:22;75697.59;;;-146.23;68.59
62508;BME280;48556;51.972;4.624;2023-04-24T00:20:47;75685.53;;;-146.23;68.29
62508;BME280;48556;51.972;4.624;2023-04-24T00:23:59;75705.63;;;-146.23;69.25
62508;BME280;48556;51.972;4.624;2023-04-24T00:26:26;75693.56;;;-146.23;68.32
62508;BME280;48556;51.972;4.624;2023-04-24T00:28:51;75753.81;;;-146.23;69.52
62508;BME280;48556;51.972;4.624;2023-04-24T00:31:17;75741.75;;;-146.23;69.58
62508;BME280;48556;51.972;4.624;2023-04-24T00:34:12;75785.94;;;-146.23;70.89
62508;BME280;48556;51.972;4.624;2023-04-24T00:37:14;75769.88;;;-146.23;70.19
62508;BME280;48556;51.972;4.624;2023-04-24T00:40:59;75834.13;;;-146.23;72.05
62508;BME280;48556;51.972;4.624;2023-04-24T00:43:43;75818.06;;;-146.23;72.52
62508;BME280;48556;51.972;4.624;2023-04-24T00:46:08;75820.06;;;-146.23;72.31
62508;BME280;48556;51.972;4.624;2023-04-24T00:48:34;75840.16;;;-146.23;72.09
62508;BME280;48556;51.972;4.624;2023-04-24T00:51:00;75810.03;;;-146.23;71.97
62508;BME280;48556;51.972;4.624;2023-04-24T00:53:25;75814.06;;;-146.23;71.30
62508;BME280;48556;51.972;4.624;2023-04-24T00:56:19;75826.09;;;-146.23;71.60
62508;BME280;48556;51.972;4.624;2023-04-24T00:59:24;75779.91;;;-146.23;70.87
62508;BME280;48556;51.972;4.624;2023-04-24T01:01:51;75810.03;;;-146.23;71.60
62508;BME280;48556;51.972;4.624;2023-04-24T01:04:27;75769.88;;;-146.23;71.00
62508;BME280;48556;51.972;4.624;2023-04-24T01:06:54;75725.69;;;-146.23;69.54
62508;BME280;48556;51.972;4.624;2023-04-24T01:09:23;75741.75;;;-146.23;69.21
62508;BME280;48556;51.972;4.624;2023-04-24T01:11:49;75741.75;;;-146.23;69.49
62508;BME280;48556;51.972;4.624;2023-04-24T01:14:22;75802.00;;;-146.23;71.17
62508;BME280;48556;51.972;4.624;2023-04-24T01:16:50;75761.84;;;-146.23;70.19
62508;BME280;48556;51.972;4.624;2023-04-24T01:19:18;75725.69;;;-146.23;68.93
62508;BME280;48556;51.972;4.624;2023-04-24T01:21:47;75709.63;;;-146.23;68.79
62508;BME280;48556;51.972;4.624;2023-04-24T01:25:01;75673.50;;;-146.23;67.85
62508;BME280;48556;51.972;4.624;2023-04-24T01:27:52;75685.53;;;-146.23;66.98
62508;BME280;48556;51.972;4.624;2023-04-24T01:31:04;75723.69;;;-146.23;68.40
62508;BME280;48556;51.972;4.624;2023-04-24T01:34:51;75697.59;;;-146.23;68.28
62508;BME280;48556;51.972;4.624;2023-04-24T01:37:21;75625.31;;;-146.23;66.90
62508;BME280;48556;51.972;4.624;2023-04-24T01:39:47;75707.63;;;-146.23;66.98
62508;BME280;48556;51.972;4.624;2023-04-24T01:42:13;75759.84;;;-146.23;68.29
62508;BME280;48556;51.972;4.624;2023-04-24T01:44:40;75765.84;;;-146.23;69.39
62508;BME280;48556;51.972;4.624;2023-04-24T01:51:13;75806.03;;;-146.23;69.00
62508;BME280;48556;51.972;4.624;2023-04-24T01:54:05;75769.88;;;-146.23;69.17
62508;BME280;48556;51.972;4.624;2023-04-24T01:56:33;75777.91;;;-146.23;68.81
62508;BME280;48556;51.972;4.624;2023-04-24T02:00:02;75806.03;;;-146.23;69.05
62508;BME280;48556;51.972;4.624;2023-04-24T02:03:20;75787.94;;;-146.23;68.26
62508;BME280;48556;51.972;4.624;2023-04-24T02:06:11;75773.88;;;-146.23;68.08
62508;BME280;48556;51.972;4.624;2023-04-24T02:09:02;75787.94;;;-146.23;68.54
62508;BME280;48556;51.972;4.624;2023-04-24T02:11:28;75741.75;;;-146.23;67.59
62508;BME280;48556;51.972;4.624;2023-04-24T02:13:54;75733.72;;;-146.23;67.66
62508;BME280;48556;51.972;4.624;2023-04-24T02:16:20;75723.69;;;-146.23;67.23
62508;BME280;48556;51.972;4.624;2023-04-24T02:19:23;75741.75;;;-146.23;67.50
62508;BME280;48556;51.972;4.624;2023-04-24T02:22:19;75725.69;;;-146.23;66.35
62508;BME280;48556;51.972;4.624;2023-04-24T02:25:11;75765.84;;;-146.23;66.97
62508;BME280;48556;51.972;4.624;2023-04-24T02:27:37;75806.03;;;-146.23;68.83
62508;BME280;48556;51.972;4.624;2023-04-24T02:30:57;75765.84;;;-146.23;67.81
62508;BME280;48556;51.972;4.624;2023-04-24T02:37:44;75763.84;;;-146.23;67.74
62508;BME280;48556;51.972;4.624;2023-04-24T02:40:13;75781.91;;;-146.23;67.33
62508;BME280;48556;51.972;4.624;2023-04-24T02:42:39;75759.84;;;-146.23;67.47
62508;BME280;48556;51.972;4.624;2023-04-24T02:45:25;75777.91;;;-146.23;68.04
62508;BME280;48556;51.972;4.624;2023-04-24T02:47:57;75777.91;;;-146.23;68.08
62508;BME280;48556;51.972;4.624;2023-04-24T02:50:27;75757.81;;;-146.23;67.77
62508;BME280;48556;51.972;4.624;2023-04-24T02:53:32;75793.97;;;-146.23;67.96
62508;BME280;48556;51.972;4.624;2023-04-24T02:56:43;75763.84;;;-146.23;67.94
62508;BME280;48556;51.972;4.624;2023-04-24T03:00:02;75763.84;;;-146.23;68.29
62508;BME280;48556;51.972;4.624;2023-04-24T03:06:59;75802.00;;;-146.23;68.77
62508;BME280;48556;51.972;4.624;2023-04-24T03:10:29;75846.19;;;-146.23;68.76
62508;BME280;48556;51.972;4.624;2023-04-24T03:13:08;75838.16;;;-146.23;68.58
62508;BME280;48556;51.972;4.624;2023-04-24T03:15:39;75800.00;;;-146.23;67.74
62508;BME280;48556;51.972;4.624;2023-04-24T03:18:05;75866.25;;;-146.23;68.59
62508;BME280;48556;51.972;4.624;2023-04-24T03:21:23;75862.25;;;-146.23;68.61
62508;BME280;48556;51.972;4.624;2023-04-24T03:23:59;75896.38;;;-146.23;69.78
62508;BME280;48556;51.972;4.624;2023-04-24T03:26:53;75916.47;;;-146.23;69.51
62508;BME280;48556;51.972;4.624;2023-04-24T03:30:09;75944.56;;;-146.23;71.50
62508;BME280;48556;51.972;4.624;2023-04-24T03:32:48;75880.31;;;-146.23;70.62
62508;BME280;48556;51.972;4.624;2023-04-24T03:35:14;75866.25;;;-146.23;69.55
62508;BME280;48556;51.972;4.624;2023-04-24T03:38:04;75858.22;;;-146.23;69.34
62508;BME280;48556;51.972;4.624;2023-04-24T03:40:57;75874.28;;;-146.23;69.64
62508;BME280;48556;51.972;4.624;2023-04-24T03:43:22;75850.19;;;-146.23;69.27
62508;BME280;48556;51.972;4.624;2023-04-24T03:45:56;75798.00;;;-146.23;68.01
62508;BME280;48556;51.972;4.624;2023-04-24T03:48:29;75753.81;;;-146.23;66.59
62508;BME280;48556;51.972;4.624;2023-04-24T03:51:00;75749.78;;;-146.23;66.53
62508;BME280;48556;51.972;4.624;2023-04-24T03:53:26;75705.63;;;-146.23;65.29
62508;BME280;48556;51.972;4.624;2023-04-24T03:55:52;75681.53;;;-146.23;65.19
62508;BME280;48556;51.972;4.624;2023-04-24T04:02:05;75665.47;;;-146.23;63.92
62508;BME280;48556;51.972;4.624;2023-04-24T04:04:31;75617.28;;;-146.23;63.09
62508;BME280;48556;51.972;4.624;2023-04-24T04:07:11;75637.34;;;-146.23;62.75
62508;BME280;48556;51.972;4.624;2023-04-24T04:09:38;75609.25;;;-146.23;62.84
62508;BME280;48556;51.972;4.624;2023-04-24T04:12:04;75631.31;;;-146.23;62.67
62508;BME280;48556;51.972;4.624;2023-04-24T04:14:29;75639.34;;;-146.23;62.35
62508;BME280;48556;51.972;4.624;2023-04-24T04:17:17;75589.16;;;-146.23;61.56
62508;BME280;48556;51.972;4.624;2023-04-24T04:20:07;75577.13;;;-146.23;61.37
62508;BME280;48556;51.972;4.624;2023-04-24T04:23:01;75589.16;;;-146.23;61.06
62508;BME280;48556;51.972;4.624;2023-04-24T04:25:36;75633.34;;;-146.23;61.79
62508;BME280;48556;51.972;4.624;2023-04-24T04:28:12;75637.34;;;-146.23;62.33
62508;BME280;48556;51.972;4.624;2023-04-24T04:30:38;75671.50;;;-146.23;62.65
62508;BME280;48556;51.972;4.624;2023-04-24T04:33:03;75675.50;;;-146.23;62.35
62508;BME280;48556;51.972;4.624;2023-04-24T04:35:33;75711.66;;;-146.23;63.05
62508;BME280;48556;51.972;4.624;2023-04-24T04:37:59;75757.81;;;-146.23;64.48
62508;BME280;48556;51.972;4.624;2023-04-24T04:40:25;75725.69;;;-146.23;63.25
62508;BME280;48556;51.972;4.624;2023-04-24T04:42:53;75814.06;;;-146.23;65.76
62508;BME280;48556;51.972;4.624;2023-04-24T04:45:26;75791.97;;;-146.23;65.44
62508;BME280;48556;51.972;4.624;2023-04-24T04:47:52;75810.03;;;-146.23;66.38
62508;BME280;48556;51.972;4.624;2023-04-24T04:50:35;75826.09;;;-146.23;67.30
62508;BME280;48556;51.972;4.624;2023-04-24T04:53:03;75894.38;;;-146.23;68.75
62508;BME280;48556;51.972;4.624;2023-04-24T04:55:44;75894.38;;;-146.23;69.44
62508;BME280;48556;51.972;4.624;2023-04-24T04:58:11;75898.38;;;-146.23;69.60
62508;BME280;48556;51.972;4.624;2023-04-24T05:00:37;75942.56;;;-146.23;70.35
62508;BME280;48556;51.972;4.624;2023-04-24T05:03:02;75980.72;;;-146.23;71.12
62508;BME280;48556;51.972;4.624;2023-04-24T05:05:28;75990.75;;;-146.23;71.49
62508;BME280;48556;51.972;4.624;2023-04-24T05:08:04;75972.69;;;-146.23;70.75
62508;BME280;48556;51.972;4.624;2023-04-24T05:10:56;75962.66;;;-146.23;70.54
62508;BME280;48556;51.972;4.624;2023-04-24T05:13:22;75964.66;;;-146.23;70.06
62508;BME280;48556;51.972;4.624;2023-04-24T05:15:47;75962.66;;;-146.23;70.03
62508;BME280;48556;51.972;4.624;2023-04-24T05:18:14;76022.88;;;-146.23;71.05
62508;BME280;48556;51.972;4.624;2023-04-24T05:20:41;76034.94;;;-146.23;71.13
62508;BME280;48556;51.972;4.624;2023-04-24T05:23:14;76077.09;;;-146.23;70.98
62508;BME280;48556;51.972;4.624;2023-04-24T05:25:45;76105.22;;;-146.23;71.67
62508;BME280;48556;51.972;4.624;2023-04-24T05:28:38;76149.41;;;-146.23;72.71
62508;BME280;48556;51.972;4.624;2023-04-24T05:31:04;76091.16;;;-146.23;71.40
62508;BME280;48556;51.972;4.624;2023-04-24T05:33:30;76119.28;;;-146.23;71.34
62508;BME280;48556;51.972;4.624;2023-04-24T05:35:56;76125.31;;;-146.23;71.37
62508;BME280;48556;51.972;4.624;2023-04-24T05:38:50;76123.28;;;-146.23;71.50
62508;BME280;48556;51.972;4.624;2023-04-24T05:41:32;76143.38;;;-146.23;71.67
62508;BME280;48556;51.972;4.624;2023-04-24T05:43:58;76131.31;;;-146.23;71.35
62508;BME280;48556;51.972;4.624;2023-04-24T05:47:06;76175.50;;;-146.23;71.50
62508;BME280;48556;51.972;4.624;2023-04-24T05:49:33;76175.50;;;-146.23;71.08
62508;BME280;48556;51.972;4.624;2023-04-24T05:52:24;76175.50;;;-146.23;70.51
62508;BME280;48556;51.972;4.624;2023-04-24T05:54:50;76221.69;;;-146.23;70.79
62508;BME280;48556;51.972;4.624;2023-04-24T05:57:15;76199.59;;;-146.23;70.47
62508;BME280;48556;51.972;4.624;2023-04-24T05:59:41;76191.56;;;-146.23;70.07
62508;BME280;48556;51.972;4.624;2023-04-24T06:02:15;76167.47;;;-146.23;69.49
62508;BME280;48556;51.972;4.624;2023-04-24T06:04:45;76147.38;;;-146.23;68.87
62508;BME280;48556;51.972;4.624;2023-04-24T06:07:18;76205.63;;;-146.23;69.37
62508;BME280;48556;51.972;4.624;2023-04-24T06:09:44;76199.59;;;-146.23;69.86
62508;BME280;48556;51.972;4.624;2023-04-24T06:12:09;76189.56;;;-146.23;69.33
62508;BME280;48556;51.972;4.624;2023-04-24T06:14:44;76195.59;;;-146.23;69.39
62508;BME280;48556;51.972;4.624;2023-04-24T06:17:21;76205.63;;;-146.23;70.32
62508;BME280;48556;51.972;4.624;2023-04-24T06:19:49;76223.69;;;-146.23;70.51
62508;BME280;48556;51.972;4.624;2023-04-24T06:22:14;76253.81;;;-146.23;70.28
62508;BME280;48556;51.972;4.624;2023-04-24T06:25:35;76259.84;;;-146.23;70.86
62508;BME280;48556;51.972;4.624;2023-04-24T06:29:00;76283.94;;;-146.23;71.05
62508;BME280;48556;51.972;4.624;2023-04-24T06:31:36;76261.84;;;-146.23;69.89
62508;BME280;48556;51.972;4.624;2023-04-24T06:34:34;76247.78;;;-146.23;69.27
62508;BME280;48556;51.972;4.624;2023-04-24T06:37:50;76283.94;;;-146.23;69.20
62508;BME280;48556;51.972;4.624;2023-04-24T06:40:16;76265.88;;;-146.23;68.59
62508;BME280;48556;51.972;4.624;2023-04-24T06:42:46;76231.72;;;-146.23;68.28
62508;BME280;48556;51.972;4.624;2023-04-24T06:45:13;76251.81;;;-146.23;68.22
62508;BME280;48556;51.972;4.624;2023-04-24T06:47:39;76283.94;;;-146.23;68.28
62508;BME280;48556;51.972;4.624;2023-04-24T06:50:05;76293.97;;;-146.23;68.07
62508;BME280;48556;51.972;4.624;2023-04-24T06:52:36;76291.97;;;-146.23;67.96
62508;BME280;48556;51.972;4.624;2023-04-24T06:55:25;76291.97;;;-146.23;66.98
62508;BME280;48556;51.972;4.624;2023-04-24T06:57:51;76293.97;;;-146.23;67.80
62508;BME280;48556;51.972;4.624;2023-04-24T07:00:17;76296.00;;;-146.23;67.63
62508;BME280;48556;51.972;4.624;2023-04-24T07:02:50;76298.00;;;-146.23;68.15
62508;BME280;48556;51.972;4.624;2023-04-24T07:05:19;76316.06;;;-146.23;67.66
62508;BME280;48556;51.972;4.624;2023-04-24T07:08:26;76308.03;;;-146.23;67.26
62508;BME280;48556;51.972;4.624;2023-04-24T07:11:40;76354.22;;;-146.23;67.54
62508;BME280;48556;51.972;4.624;2023-04-24T07:14:15;76408.44;;;-146.23;68.15
62508;BME280;48556;51.972;4.624;2023-04-24T07:16:49;76420.50;;;-146.23;68.06
62508;BME280;48556;51.972;4.624;2023-04-24T07:19:15;76400.41;;;-146.23;67.52
62508;BME280;48556;51.972;4.624;2023-04-24T07:21:40;76360.25;;;-146.23;66.89
62508;BME280;48556;51.972;4.624;2023-04-24T07:24:15;76348.22;;;-146.23;66.47
62508;BME280;48556;51.972;4.624;2023-04-24T07:26:41;76368.28;;;-146.23;66.80
62508;BME280;48556;51.972;4.624;2023-04-24T07:29:18;76330.13;;;-146.23;66.50
62508;BME280;48556;51.972;4.624;2023-04-24T07:32:19;76332.13;;;-146.23;66.50
62508;BME280;48556;51.972;4.624;2023-04-24T07:35:40;76354.22;;;-146.23;65.37
62508;BME280;48556;51.972;4.624;2023-04-24T07:38:25;76324.09;;;-146.23;64.21
62508;BME280;48556;51.972;4.624;2023-04-24T07:41:20;76348.22;;;-146.23;63.12
62508;BME280;48556;51.972;4.624;2023-04-24T07:44:01;76324.09;;;-146.23;62.61
62508;BME280;48556;51.972;4.624;2023-04-24T07:46:35;76384.34;;;-146.23;62.51
62508;BME280;48556;51.972;4.624;2023-04-24T07:49:38;76392.38;;;-146.23;62.71
62508;BME280;48556;51.972;4.624;2023-04-24T07:52:21;76426.53;;;-146.23;63.65
62508;BME280;48556;51.972;4.624;2023-04-24T07:54:47;76386.38;;;-146.23;62.13
62508;BME280;48556;51.972;4.624;2023-04-24T07:57:43;76412.47;;;-146.23;62.54
62508;BME280;48556;51.972;4.624;2023-04-24T08:00:20;76386.38;;;-146.23;61.37
62508;BME280;48556;51.972;4.624;2023-04-24T08:03:10;76416.50;;;-146.23;61.59
62508;BME280;48556;51.972;4.624;2023-04-24T08:06:13;76400.41;;;-146.23;61.64
62508;BME280;48556;51.972;4.624;2023-04-24T08:08:56;76372.31;;;-146.23;60.77
62508;BME280;48556;51.972;4.624;2023-04-24T08:11:35;76368.28;;;-146.23;61.26
62508;BME280;48556;51.972;4.624;2023-04-24T08:14:01;76380.34;;;-146.23;58.89
62508;BME280;48556;51.972;4.624;2023-04-24T08:16:39;76376.31;;;-146.23;57.41
62508;BME280;48556;51.972;4.624;2023-04-24T08:19:10;76372.31;;;-146.23;57.34
62508;BME280;48556;51.972;4.624;2023-04-24T08:21:55;76398.41;;;-146.23;57.95
62508;BME280;48556;51.972;4.624;2023-04-24T08:24:40;76408.44;;;-146.23;57.71
62508;BME280;48556;51.972;4.624;2023-04-24T08:27:06;76410.47;;;-146.23;57.78
62508;BME280;48556;51.972;4.624;2023-04-24T08:29:39;76430.53;;;-146.23;56.93
62508;BME280;48556;51.972;4.624;2023-04-24T08:32:05;76420.50;;;-146.23;56.70
62508;BME280;48556;51.972;4.624;2023-04-24T08:34:31;76420.50;;;-146.23;55.29
62508;BME280;48556;51.972;4.624;2023-04-24T08:37:03;76410.47;;;-146.23;54.33
62508;BME280;48556;51.972;4.624;2023-04-24T08:39:29;76406.44;;;-146.23;54.35
62508;BME280;48556;51.972;4.624;2023-04-24T08:41:59;76376.31;;;-146.23;53.39
62508;BME280;48556;51.972;4.624;2023-04-24T08:45:05;76360.25;;;-146.23;52.07
62508;BME280;48556;51.972;4.624;2023-04-24T08:47:52;76384.34;;;-146.23;53.33
62508;BME280;48556;51.972;4.624;2023-04-24T08:51:02;76332.13;;;-146.23;52.06
62508;BME280;48556;51.972;4.624;2023-04-24T08:54:04;76418.50;;;-146.23;51.94
62508;BME280;48556;51.972;4.624;2023-04-24T08:56:45;76416.50;;;-146.23;52.52
62508;BME280;48556;51.972;4.624;2023-04-24T08:59:39;76444.59;;;-146.23;52.01
62508;BME280;48556;51.972;4.624;2023-04-24T09:02:10;76408.44;;;-146.23;51.12
62508;BME280;48556;51.972;4.624;2023-04-24T09:04:47;76380.34;;;-146.23;50.51
62508;BME280;48556;51.972;4.624;2023-04-24T09:07:56;76420.50;;;-146.23;50.19
62508;BME280;48556;51.972;4.624;2023-04-24T09:10:24;76372.31;;;-146.23;50.89
62508;BME280;48556;51.972;4.624;2023-04-24T09:13:22;76376.31;;;-146.23;51.83
62508;BME280;48556;51.972;4.624;2023-04-24T09:16:09;76394.41;;;-146.23;52.22
62508;BME280;48556;51.972;4.624;2023-04-24T09:19:10;76432.56;;;-146.23;53.18
62508;BME280;48556;51.972;4.624;2023-04-24T09:21:36;76476.75;;;-146.23;54.58
62508;BME280;48556;51.972;4.624;2023-04-24T09:24:25;76484.78;;;-146.23;55.88
62508;BME280;48556;51.972;4.624;2023-04-24T09:27:04;76516.91;;;-146.23;56.78
62508;BME280;48556;51.972;4.624;2023-04-24T09:29:29;76532.97;;;-146.23;56.22
62508;BME280;48556;51.972;4.624;2023-04-24T09:32:24;76506.88;;;-146.23;56.04
62508;BME280;48556;51.972;4.624;2023-04-24T09:35:21;76428.53;;;-146.23;55.37
62508;BME280;48556;51.972;4.624;2023-04-24T09:38:30;76416.50;;;-146.23;54.82
62508;BME280;48556;51.972;4.624;2023-04-24T09:41:06;76364.28;;;-146.23;54.01
62508;BME280;48556;51.972;4.624;2023-04-24T09:43:36;76408.44;;;-146.23;53.38
62508;BME280;48556;51.972;4.624;2023-04-24T09:46:07;76412.47;;;-146.23;53.62
62508;BME280;48556;51.972;4.624;2023-04-24T09:52:20;76348.22;;;-146.23;51.75
62508;BME280;48556;51.972;4.624;2023-04-24T09:55:10;76374.31;;;-146.23;49.91
62508;BME280;48556;51.972;4.624;2023-04-24T10:00:47;76390.38;;;-146.23;49.83
62508;BME280;48556;51.972;4.624;2023-04-24T10:03:20;76424.53;;;-146.23;51.22
62508;BME280;48556;51.972;4.624;2023-04-24T10:05:46;76378.34;;;-146.23;50.22
62508;BME280;48556;51.972;4.624;2023-04-24T10:08:48;76378.34;;;-146.23;50.92
62508;BME280;48556;51.972;4.624;2023-04-24T10:11:50;76416.50;;;-146.23;50.60
62508;BME280;48556;51.972;4.624;2023-04-24T10:14:21;76428.53;;;-146.23;51.73
62508;BME280;48556;51.972;4.624;2023-04-24T10:16:47;76420.50;;;-146.23;52.34
62508;BME280;48556;51.972;4.624;2023-04-24T10:19:14;76396.41;;;-146.23;52.33
62508;BME280;48556;51.972;4.624;2023-04-24T10:22:11;76424.53;;;-146.23;53.19
62508;BME280;48556;51.972;4.624;2023-04-24T10:24:45;76396.41;;;-146.23;52.90
62508;BME280;48556;51.972;4.624;2023-04-24T10:27:21;76432.56;;;-146.23;55.16
62508;BME280;48556;51.972;4.624;2023-04-24T10:29:53;76472.72;;;-146.23;56.00
62508;BME280;48556;51.972;4.624;2023-04-24T10:32:18;76488.78;;;-146.23;54.93
62508;BME280;48556;51.972;4.624;2023-04-24T10:34:44;76466.69;;;-146.23;54.56
62508;BME280;48556;51.972;4.624;2023-04-24T10:37:10;76488.78;;;-146.23;53.59
62508;BME280;48556;51.972;4.624;2023-04-24T10:39:47;76468.69;;;-146.23;53.21
62508;BME280;48556;51.972;4.624;2023-04-24T10:42:15;76476.75;;;-146.23;52.54
62508;BME280;48556;51.972;4.624;2023-04-24T10:44:41;76472.72;;;-146.23;52.56
62508;BME280;48556;51.972;4.624;2023-04-24T10:47:15;76478.75;;;-146.23;52.74
62508;BME280;48556;51.972;4.624;2023-04-24T10:49:58;76434.56;;;-146.23;52.93
62508;BME280;48556;51.972;4.624;2023-04-24T10:52:49;76386.38;;;-146.23;52.74
62508;BME280;48556;51.972;4.624;2023-04-24T10:55:45;76398.41;;;-146.23;53.35
62508;BME280;48556;51.972;4.624;2023-04-24T10:58:11;76370.28;;;-146.23;53.69
62508;BME280;48556;51.972;4.624;2023-04-24T11:00:57;76424.53;;;-146.23;52.88
62508;BME280;48556;51.972;4.624;2023-04-24T11:03:55;76382.34;;;-146.23;51.06
62508;BME280;48556;51.972;4.624;2023-04-24T11:09:10;76352.22;;;-146.23;49.81
62508;BME280;48556;51.972;4.624;2023-04-24T11:11:46;76372.31;;;-146.23;51.19
62508;BME280;48556;51.972;4.624;2023-04-24T11:17:41;76444.59;;;-146.23;50.45
62508;BME280;48556;51.972;4.624;2023-04-24T11:20:10;76416.50;;;-146.23;50.25
62508;BME280;48556;51.972;4.624;2023-04-24T11:22:38;76382.34;;;-146.23;49.02
62508;BME280;48556;51.972;4.624;2023-04-24T11:29:07;76340.19;;;-146.23;45.60
62508;BME280;48556;51.972;4.624;2023-04-24T11:32:10;76273.91;;;-146.23;45.31
62508;BME280;48556;51.972;4.624;2023-04-24T11:34:54;76283.94;;;-146.23;45.48
62508;BME280;48556;51.972;4.624;2023-04-24T11:37:38;76271.91;;;-146.23;43.85
62508;BME280;48556;51.972;4.624;2023-04-24T11:40:14;76296.00;;;-146.23;44.50
62508;BME280;48556;51.972;4.624;2023-04-24T11:42:47;76279.94;;;-146.23;44.18
62508;BME280;48556;51.972;4.624;2023-04-24T11:45:25;76346.19;;;-146.23;45.36
62508;BME280;48556;51.972;4.624;2023-04-24T11:47:51;76336.16;;;-146.23;45.86
62508;BME280;48556;51.972;4.624;2023-04-24T11:50:21;76273.91;;;-146.23;44.61
62508;BME280;48556;51.972;4.624;2023-04-24T11:52:49;76287.97;;;-146.23;43.68
62508;BME280;48556;51.972;4.624;2023-04-24T11:57:49;76247.78;;;-146.23;43.12
62508;BME280;48556;51.972;4.624;2023-04-24T12:00:33;76223.69;;;-146.23;43.25
62508;BME280;48556;51.972;4.624;2023-04-24T12:03:31;76131.31;;;-146.23;41.88
62508;BME280;48556;51.972;4.624;2023-04-24T12:06:06;76179.53;;;-146.23;42.70
62508;BME280;48556;51.972;4.624;2023-04-24T12:08:40;76153.41;;;-146.23;42.78
62508;BME280;48556;51.972;4.624;2023-04-24T12:11:07;76195.59;;;-146.23;43.51
62508;BME280;48556;51.972;4.624;2023-04-24T12:13:42;76131.31;;;-146.23;42.61
62508;BME280;48556;51.972;4.624;2023-04-24T12:16:36;76119.28;;;-146.23;41.71
62508;BME280;48556;51.972;4.624;2023-04-24T12:19:22;76135.34;;;-146.23;42.02
62508;BME280;48556;51.972;4.624;2023-04-24T12:28:16;76528.94;;;-146.23;50.00
62508;BME280;48556;51.972;4.624;2023-04-24T12:31:08;76555.06;;;-146.23;51.04
62508;BME280;48556;51.972;4.624;2023-04-24T12:33:52;76631.38;;;-146.23;50.56
62508;BME280;48556;51.972;4.624;2023-04-24T12:36:28;76617.31;;;-146.23;53.01
62508;BME280;48556;51.972;4.624;2023-04-24T12:38:53;76617.31;;;-146.23;54.66
62508;BME280;48556;51.972;4.624;2023-04-24T12:41:30;76687.63;;;-146.23;57.64
62508;BME280;48556;51.972;4.624;2023-04-24T12:43:56;76665.53;;;-146.23;57.87
62508;BME280;48556;51.972;4.624;2023-04-24T12:46:43;76555.06;;;-146.23;57.20
62508;BME280;48556;51.972;4.624;2023-04-24T12:49:12;76532.97;;;-146.23;56.20
62508;BME280;48556;51.972;4.624;2023-04-24T12:52:07;76462.69;;;-146.23;56.21
62508;BME280;48556;51.972;4.624;2023-04-24T12:55:09;76420.50;;;-146.23;53.36
62508;BME280;48556;51.972;4.624;2023-04-24T12:58:24;76456.66;;;-146.23;49.58
62508;BME280;48556;51.972;4.624;2023-04-24T13:01:47;76408.44;;;-146.23;49.14
62508;BME280;48556;51.972;4.624;2023-04-24T13:04:40;76368.28;;;-146.23;46.91
62508;BME280;48556;51.972;4.624;2023-04-24T13:07:06;76346.19;;;-146.23;47.55
62508;BME280;48556;51.972;4.624;2023-04-24T13:09:34;76366.28;;;-146.23;47.64
62508;BME280;48556;51.972;4.624;2023-04-24T13:12:00;76412.47;;;-146.23;46.83
62508;BME280;48556;51.972;4.624;2023-04-24T13:14:28;76488.78;;;-146.23;47.96
62508;BME280;48556;51.972;4.624;2023-04-24T13:17:19;76472.72;;;-146.23;47.29
62508;BME280;48556;51.972;4.624;2023-04-24T13:20:00;76448.63;;;-146.23;47.43
62508;BME280;48556;51.972;4.624;2023-04-24T13:22:31;76404.44;;;-146.23;45.24
62508;BME280;48556;51.972;4.624;2023-04-24T13:25:01;76456.66;;;-146.23;46.64
62508;BME280;48556;51.972;4.624;2023-04-24T13:27:27;76482.75;;;-146.23;47.60
62508;BME280;48556;51.972;4.624;2023-04-24T13:29:52;76490.78;;;-146.23;46.77
62508;BME280;48556;51.972;4.624;2023-04-24T13:32:47;76428.53;;;-146.23;47.05
62508;BME280;48556;51.972;4.624;2023-04-24T13:38:46;76069.06;;;-146.23;40.55
62508;BME280;48556;51.972;4.624;2023-04-24T13:41:26;76034.94;;;-146.23;37.61
62508;BME280;48556;51.972;4.624;2023-04-24T13:43:56;75918.47;;;-146.23;37.06
62508;BME280;48556;51.972;4.624;2023-04-24T13:46:42;75894.38;;;-146.23;37.12
62508;BME280;48556;51.972;4.624;2023-04-24T13:49:16;75986.75;;;-146.23;37.85
62508;BME280;48556;51.972;4.624;2023-04-24T13:51:48;76131.31;;;-146.23;39.71
62508;BME280;48556;51.972;4.624;2023-04-24T13:54:14;76161.44;;;-146.23;38.36
62508;BME280;48556;51.972;4.624;2023-04-24T13:56:40;76199.59;;;-146.23;39.38
62508;BME280;48556;51.972;4.624;2023-04-24T13:59:05;76121.28;;;-146.23;38.66
62508;BME280;48556;51.972;4.624;2023-04-24T14:01:31;76111.25;;;-146.23;38.07
62508;BME280;48556;51.972;4.624;2023-04-24T14:04:03;76191.56;;;-146.23;38.54
62508;BME280;48556;51.972;4.624;2023-04-24T14:06:29;76243.78;;;-146.23;39.19
62508;BME280;48556;51.972;4.624;2023-04-24T14:09:44;76229.72;;;-146.23;38.80
62508;BME280;48556;51.972;4.624;2023-04-24T14:12:16;76229.72;;;-146.23;38.85
62508;BME280;48556;51.972;4.624;2023-04-24T14:14:46;76199.59;;;-146.23;38.75
62508;BME280;48556;51.972;4.624;2023-04-24T14:17:20;76263.88;;;-146.23;39.68
62508;BME280;48556;51.972;4.624;2023-04-24T14:19:45;76334.16;;;-146.23;40.72
62508;BME280;48556;51.972;4.624;2023-04-24T14:22:11;76388.38;;;-146.23;42.14
62508;BME280;48556;51.972;4.624;2023-04-24T14:24:37;76384.34;;;-146.23;43.12
62508;BME280;48556;51.972;4.624;2023-04-24T14:27:21;76472.72;;;-146.23;44.85